Time;durP1;ratioP1;P1;durP2;ratioP2;P2;SDS_P1;SDS_P2;PMS_P1;PMS_P2;Temp;Humidity;BMP_temperature;BMP_pressure;BME280_temperature;BME280_humidity;BME280_pressure;Samples;Min_cycle;Max_cycle;Signal;HPM_P1;HPM_P2
2022/12/09 00:00:33;;;;;;;25.52;13.65;;;0.80;99.90;;;;;;5014037;28;20027;-84
2022/12/09 00:02:58;;;;;;;24.63;14.30;;;0.90;99.90;;;;;;4999669;28;20100;-84
2022/12/09 00:05:24;;;;;;;25.67;13.10;;;1.00;99.90;;;;;;4999114;28;20106;-84
2022/12/09 00:07:49;;;;;;;24.15;12.68;;;1.10;99.90;;;;;;4996917;28;20054;-83
2022/12/09 00:10:15;;;;;;;21.33;13.18;;;1.10;99.90;;;;;;5002156;28;20034;-83
2022/12/09 00:12:41;;;;;;;23.33;12.48;;;1.10;99.90;;;;;;5017224;28;20018;-83
2022/12/09 00:15:07;;;;;;;22.33;11.55;;;1.10;99.90;;;;;;5034775;28;20351;-83
2022/12/09 00:17:33;;;;;;;18.80;10.18;;;1.00;99.90;;;;;;5020266;28;20487;-83
2022/12/09 00:19:59;;;;;;;23.08;12.13;;;0.90;99.90;;;;;;5017745;28;20108;-82
2022/12/09 00:22:27;;;;;;;23.40;13.02;;;0.80;99.90;;;;;;4999621;28;20395;-84
2022/12/09 00:24:53;;;;;;;25.83;13.88;;;0.80;99.90;;;;;;4996635;28;20415;-83
2022/12/09 00:27:19;;;;;;;20.98;12.60;;;0.70;99.90;;;;;;4997313;28;20038;-83
2022/12/09 00:29:44;;;;;;;21.35;12.00;;;0.70;99.90;;;;;;4998229;28;20038;-83
2022/12/09 00:32:10;;;;;;;21.02;12.20;;;0.60;99.90;;;;;;4997473;28;20111;-84
2022/12/09 00:34:35;;;;;;;21.70;11.52;;;0.60;99.90;;;;;;4997818;28;20369;-83
2022/12/09 00:37:01;;;;;;;20.25;11.27;;;0.50;99.90;;;;;;4999372;28;20093;-83
2022/12/09 00:39:29;;;;;;;27.15;13.88;;;0.50;99.90;;;;;;5001716;28;20026;-83
2022/12/09 00:41:58;;;;;;;24.70;13.68;;;0.40;99.90;;;;;;5005120;28;20036;-82
2022/12/09 00:48:40;;;;;;;;;;;;;;;;;;;;;
2022/12/09 00:55:23;;;;;;;;;;;;;;;;;;;;;
2022/12/09 01:09:47;;;;;;;23.88;12.85;;;-0.20;99.90;;;;;;4874668;29;20038;-83
2022/12/09 01:17:03;;;;;;;;;;;;;;;;;;;;;
2022/12/09 01:20:01;;;;;;;27.55;12.48;;;-0.20;99.90;;;;;;4788854;29;20727;-83
2022/12/09 01:30:38;;;;;;;;;;;;;;;;;;;;;
2022/12/09 01:40:19;;;;;;;26.13;11.98;;;-0.40;99.90;;;;;;4974223;28;20050;-82
2022/12/09 01:47:04;;;;;;;20.27;10.73;;;-0.40;99.90;;;;;;4956595;29;20024;-81
2022/12/09 01:49:47;;;;;;;18.95;10.38;;;-0.50;99.90;;;;;;4956745;29;20075;-82
2022/12/09 01:56:30;;;;;;;;;;;;;;;;;;;;;
2022/12/09 01:59:19;;;;;;;23.00;11.13;;;-0.60;99.90;;;;;;5002833;28;20093;-82
2022/12/09 02:05:23;;;;;;;;;;;;;;;;;;;;;
2022/12/09 02:08:18;;;;;;;23.67;11.10;;;-0.60;99.90;;;;;;5033538;28;20053;-83
2022/12/09 02:22:14;;;;;;;17.00;10.30;;;-0.40;99.90;;;;;;5189718;22;20062;-82
2022/12/09 02:24:52;;;;;;;17.77;9.80;;;-0.40;99.90;;;;;;5041521;23;20030;-81
2022/12/09 02:27:36;;;;;;;21.60;11.10;;;-0.40;99.90;;;;;;5036903;28;20052;-82
2022/12/09 02:30:15;;;;;;;16.67;9.43;;;-0.30;99.90;;;;;;5011689;28;20031;-81
2022/12/09 02:33:08;;;;;;;17.33;8.90;;;-0.40;99.90;;;;;;4981335;28;20034;-82
2022/12/09 02:35:45;;;;;;;15.13;9.50;;;-0.30;99.90;;;;;;4988311;28;20085;-82
2022/12/09 02:38:16;;;;;;;17.33;9.18;;;-0.30;99.90;;;;;;5001086;28;20038;-82
2022/12/09 02:40:47;;;;;;;15.55;8.93;;;-0.30;99.90;;;;;;5002382;28;20029;-82
2022/12/09 02:43:14;;;;;;;15.38;8.00;;;-0.30;99.90;;;;;;5003891;28;20077;-82
2022/12/09 02:45:42;;;;;;;15.10;7.68;;;-0.20;99.90;;;;;;5005097;28;20018;-81
2022/12/09 02:48:10;;;;;;;17.13;8.73;;;-0.10;99.90;;;;;;5002035;28;20053;-82
2022/12/09 02:50:39;;;;;;;13.45;7.97;;;-0.10;99.90;;;;;;5001910;28;20026;-82
2022/12/09 02:53:09;;;;;;;15.52;9.43;;;-0.10;99.90;;;;;;5004649;28;20011;-82
2022/12/09 02:55:36;;;;;;;15.77;8.85;;;0.00;99.90;;;;;;5002394;28;20074;-82
2022/12/09 02:58:02;;;;;;;14.10;7.82;;;0.00;99.90;;;;;;4984508;28;20055;-81
2022/12/09 03:00:28;;;;;;;13.98;8.52;;;0.00;99.90;;;;;;4982541;28;20158;-81
2022/12/09 03:02:57;;;;;;;16.20;8.88;;;0.00;99.90;;;;;;4980567;28;20480;-81
2022/12/09 03:05:35;;;;;;;13.48;7.93;;;0.00;99.90;;;;;;4981148;28;20054;-81
2022/12/09 03:08:18;;;;;;;16.33;8.25;;;-0.10;99.90;;;;;;5001659;28;20025;-80
2022/12/09 03:10:52;;;;;;;16.15;8.15;;;-0.10;99.90;;;;;;5002459;28;20066;-82
2022/12/09 03:13:35;;;;;;;15.60;8.45;;;-0.20;99.90;;;;;;5001272;28;20663;-81
2022/12/09 03:16:05;;;;;;;;;;;-0.20;99.90;;;;;;5001477;28;20045;-81
2022/12/09 03:18:33;;;;;;;14.20;8.07;;;-0.40;99.90;;;;;;5003392;28;20315;-81
2022/12/09 03:21:00;;;;;;;14.13;8.80;;;-0.40;99.90;;;;;;5001680;28;20030;-81
2022/12/09 03:23:29;;;;;;;14.63;8.32;;;-0.50;99.90;;;;;;5019151;28;20046;-80
2022/12/09 03:25:57;;;;;;;18.55;9.85;;;-0.60;99.90;;;;;;5014385;28;20460;-82
2022/12/09 03:28:38;;;;;;;16.77;9.13;;;-0.70;99.90;;;;;;4986584;28;20027;-82
2022/12/09 03:31:09;;;;;;;15.73;8.35;;;-0.70;99.90;;;;;;4980409;28;20098;-82
2022/12/09 03:33:34;;;;;;;21.20;9.82;;;-0.80;99.90;;;;;;4980067;28;20031;-82
2022/12/09 03:36:04;;;;;;;18.00;10.25;;;-0.90;99.90;;;;;;4981051;28;20385;-82
2022/12/09 03:38:33;;;;;;;18.35;9.75;;;-0.90;99.90;;;;;;4981808;28;20035;-82
2022/12/09 03:41:22;;;;;;;19.50;10.10;;;-0.90;99.90;;;;;;4981993;28;20034;-81
2022/12/09 03:43:53;;;;;;;16.15;9.32;;;-1.00;99.90;;;;;;4981393;28;20111;-81
2022/12/09 03:46:20;;;;;;;14.93;8.73;;;-1.00;99.90;;;;;;4980435;28;20034;-81
2022/12/09 03:48:46;;;;;;;20.20;9.75;;;-1.00;99.90;;;;;;4994664;28;20035;-81
2022/12/09 03:51:25;;;;;;;16.95;9.63;;;-1.00;99.90;;;;;;4999816;28;20027;-81
2022/12/09 03:53:54;;;;;;;19.45;9.55;;;-1.00;99.90;;;;;;5008121;28;20018;-80
2022/12/09 03:56:25;;;;;;;18.58;10.05;;;-1.00;99.90;;;;;;5017679;28;20014;-81
2022/12/09 03:58:53;;;;;;;15.50;9.25;;;-1.00;99.90;;;;;;5012168;28;20034;-81
2022/12/09 04:01:21;;;;;;;17.17;9.25;;;-1.00;99.90;;;;;;5019423;28;20034;-81
2022/12/09 04:03:48;;;;;;;21.95;9.55;;;-0.90;99.90;;;;;;5003691;28;20027;-82
2022/12/09 04:06:15;;;;;;;17.63;10.00;;;-0.90;99.90;;;;;;5000660;28;20026;-81
2022/12/09 04:08:40;;;;;;;18.27;9.85;;;-0.90;99.90;;;;;;4999599;28;20022;-82
2022/12/09 04:11:06;;;;;;;20.60;11.40;;;-0.90;99.90;;;;;;5002120;28;20036;-82
2022/12/09 04:13:32;;;;;;;20.65;10.73;;;-0.90;99.90;;;;;;5000592;28;20471;-82
2022/12/09 04:15:57;;;;;;;18.90;10.35;;;-0.90;99.90;;;;;;5001048;28;20045;-81
2022/12/09 04:18:23;;;;;;;17.95;9.70;;;-0.90;99.90;;;;;;5000088;28;20030;-81
2022/12/09 04:20:49;;;;;;;20.08;10.77;;;-0.90;99.90;;;;;;5000009;28;20093;-81
2022/12/09 04:23:15;;;;;;;16.92;9.85;;;-0.90;99.90;;;;;;5001795;28;20033;-81
2022/12/09 04:25:40;;;;;;;19.02;10.25;;;-0.90;99.90;;;;;;5015889;28;20049;-81
2022/12/09 04:28:06;;;;;;;19.33;10.60;;;-0.90;99.90;;;;;;4989779;28;20058;-81
2022/12/09 04:30:31;;;;;;;20.52;9.77;;;-0.90;99.90;;;;;;4978110;28;20034;-82
2022/12/09 04:32:58;;;;;;;13.55;8.35;;;-0.80;99.90;;;;;;4979382;28;20429;-82
2022/12/09 04:35:24;;;;;;;15.23;9.20;;;-0.80;99.90;;;;;;4979136;28;20047;-81
2022/12/09 04:37:50;;;;;;;15.88;9.20;;;-0.70;99.90;;;;;;4978702;28;20074;-81
2022/12/09 04:40:16;;;;;;;13.10;8.35;;;-0.60;99.90;;;;;;4976562;28;20050;-81
2022/12/09 04:42:41;;;;;;;13.20;8.25;;;-0.60;99.90;;;;;;4977237;28;20041;-81
2022/12/09 04:45:07;;;;;;;16.38;8.32;;;-0.60;99.90;;;;;;4978542;28;20038;-81
2022/12/09 04:47:33;;;;;;;17.20;8.88;;;-0.60;99.90;;;;;;4980008;28;20038;-81
2022/12/09 04:49:59;;;;;;;12.63;8.65;;;-0.70;99.90;;;;;;4981852;28;20035;-82
2022/12/09 04:52:24;;;;;;;13.50;8.10;;;-0.70;99.90;;;;;;4979429;28;20559;-83
2022/12/09 04:54:50;;;;;;;14.55;8.30;;;-0.70;99.90;;;;;;5008261;28;20041;-82
2022/12/09 04:57:16;;;;;;;13.57;8.23;;;-0.80;99.90;;;;;;4999984;28;20084;-81
2022/12/09 04:59:42;;;;;;;15.38;7.80;;;-0.80;99.90;;;;;;5000127;28;20022;-81
2022/12/09 05:02:08;;;;;;;15.55;9.18;;;-0.70;99.90;;;;;;5002452;28;20118;-81
2022/12/09 05:04:34;;;;;;;14.05;8.38;;;-0.70;99.90;;;;;;5001469;28;20022;-82
2022/12/09 05:06:59;;;;;;;13.07;7.80;;;-0.70;99.90;;;;;;5001230;28;20038;-82
2022/12/09 05:09:25;;;;;;;16.98;8.95;;;-0.70;99.90;;;;;;4987497;28;20069;-81
2022/12/09 05:11:51;;;;;;;12.55;7.47;;;-0.70;99.90;;;;;;4977035;28;20550;-82
2022/12/09 05:14:17;;;;;;;18.73;9.07;;;-0.70;99.90;;;;;;4979711;28;20081;-82
2022/12/09 05:16:42;;;;;;;14.10;8.15;;;-0.70;99.90;;;;;;4980151;28;20027;-82
2022/12/09 05:19:08;;;;;;;15.98;8.70;;;-0.70;99.90;;;;;;4978717;28;20042;-82
2022/12/09 05:21:34;;;;;;;16.45;9.10;;;-0.60;99.90;;;;;;4978784;28;20027;-82
2022/12/09 05:24:01;;;;;;;16.50;9.05;;;-0.60;99.90;;;;;;4995547;28;20029;-82
2022/12/09 05:26:27;;;;;;;15.93;8.95;;;-0.70;99.90;;;;;;5009348;28;20025;-80
2022/12/09 05:28:53;;;;;;;17.40;7.85;;;-0.70;99.90;;;;;;5016851;28;20106;-81
2022/12/09 05:31:21;;;;;;;23.83;10.00;;;-0.70;99.90;;;;;;4981927;28;20031;-82
2022/12/09 05:33:48;;;;;;;13.80;8.15;;;-0.60;99.90;;;;;;4978018;28;20506;-81
2022/12/09 05:36:16;;;;;;;21.80;9.13;;;-0.60;99.90;;;;;;4977826;28;20034;-81
2022/12/09 05:38:42;;;;;;;17.42;9.60;;;-0.60;99.90;;;;;;4979858;28;20042;-80
2022/12/09 05:41:08;;;;;;;20.02;10.93;;;-0.70;99.90;;;;;;4996209;28;20035;-81
2022/12/09 05:43:35;;;;;;;18.75;10.20;;;-0.70;99.90;;;;;;4998994;28;20498;-80
2022/12/09 05:46:01;;;;;;;17.33;9.73;;;-0.70;99.90;;;;;;4998658;28;20027;-81
2022/12/09 05:48:27;;;;;;;17.23;10.55;;;-0.80;99.90;;;;;;4999440;28;20042;-80
2022/12/09 05:51:04;;;;;;;19.88;11.13;;;-0.80;99.90;;;;;;4987937;28;20038;-81
2022/12/09 05:53:30;;;;;;;20.73;11.43;;;-0.80;99.90;;;;;;4978771;28;20062;-81
2022/12/09 05:55:56;;;;;;;19.42;11.30;;;-0.80;99.90;;;;;;5003759;28;20049;-80
2022/12/09 05:58:21;;;;;;;19.85;11.93;;;-0.70;99.90;;;;;;4999057;28;20041;-80
2022/12/09 06:00:48;;;;;;;20.92;11.68;;;-0.60;99.90;;;;;;5014754;28;20077;-82
2022/12/09 06:03:13;;;;;;;21.65;12.25;;;-0.60;99.90;;;;;;5001920;28;20037;-81
2022/12/09 06:05:39;;;;;;;20.63;11.98;;;-0.50;99.90;;;;;;5000713;28;20050;-81
2022/12/09 06:08:05;;;;;;;22.83;11.98;;;-0.50;99.90;;;;;;5001156;28;20033;-82
2022/12/09 06:10:31;;;;;;;19.10;10.80;;;-0.50;99.90;;;;;;4998413;28;20478;-81
2022/12/09 06:12:57;;;;;;;19.10;11.70;;;-0.60;99.90;;;;;;4982939;28;20034;-81
2022/12/09 06:15:23;;;;;;;16.88;10.40;;;-0.60;99.90;;;;;;4984554;28;20041;-81
2022/12/09 06:17:49;;;;;;;21.88;11.18;;;-0.50;99.90;;;;;;4981086;28;20090;-81
2022/12/09 06:20:15;;;;;;;19.40;11.07;;;-0.50;99.90;;;;;;4981409;28;20030;-80
2022/12/09 06:22:41;;;;;;;18.48;9.85;;;-0.50;99.90;;;;;;4984324;28;20034;-82
2022/12/09 06:25:07;;;;;;;19.30;9.70;;;-0.40;99.90;;;;;;5009672;28;20038;-81
2022/12/09 06:27:33;;;;;;;15.82;9.40;;;-0.30;99.90;;;;;;5039408;28;20045;-81
2022/12/09 06:29:58;;;;;;;14.27;8.75;;;-0.30;99.90;;;;;;5023946;28;20029;-80
2022/12/09 06:32:24;;;;;;;19.95;9.07;;;-0.30;99.90;;;;;;5010430;28;20023;-82
2022/12/09 06:34:50;;;;;;;15.38;8.90;;;-0.40;99.90;;;;;;4988841;28;20021;-82
2022/12/09 06:37:15;;;;;;;16.60;9.00;;;-0.40;99.90;;;;;;4988560;28;20019;-81
2022/12/09 06:39:41;;;;;;;15.05;8.90;;;-0.40;99.90;;;;;;4982578;28;20119;-80
2022/12/09 06:42:07;;;;;;;17.08;9.60;;;-0.40;99.90;;;;;;4984758;28;20041;-80
2022/12/09 06:44:32;;;;;;;17.60;9.48;;;-0.40;99.90;;;;;;4990193;28;20510;-81
2022/12/09 06:46:58;;;;;;;15.50;9.20;;;-0.30;99.90;;;;;;5004383;28;20104;-81
2022/12/09 06:49:24;;;;;;;15.93;8.93;;;-0.30;99.90;;;;;;5003592;28;20039;-82
2022/12/09 06:51:50;;;;;;;14.95;8.40;;;-0.30;99.90;;;;;;5000545;28;20128;-82
2022/12/09 06:54:16;;;;;;;15.35;9.10;;;-0.30;99.90;;;;;;5004050;28;20034;-81
2022/12/09 06:56:41;;;;;;;16.13;8.27;;;-0.20;99.90;;;;;;5004626;28;20078;-81
2022/12/09 06:59:10;;;;;;;15.52;8.98;;;-0.20;99.90;;;;;;4998501;28;20034;-82
2022/12/09 07:01:37;;;;;;;16.73;9.45;;;-0.10;99.90;;;;;;4997712;28;20022;-82
2022/12/09 07:04:04;;;;;;;15.32;9.15;;;-0.20;99.90;;;;;;4994476;28;20080;-82
2022/12/09 07:06:35;;;;;;;15.90;9.07;;;-0.10;99.90;;;;;;5012257;28;20034;-82
2022/12/09 07:09:20;;;;;;;14.88;8.63;;;-0.10;99.90;;;;;;5017377;28;20018;-80
2022/12/09 07:11:47;;;;;;;15.55;8.30;;;0.00;99.90;;;;;;5013668;28;20045;-81
2022/12/09 07:14:15;;;;;;;17.23;8.98;;;0.10;99.90;;;;;;5017715;28;20050;-81
2022/12/09 07:16:40;;;;;;;14.35;8.82;;;0.20;99.90;;;;;;5017972;28;20037;-81
2022/12/09 07:19:06;;;;;;;16.35;8.45;;;0.20;99.90;;;;;;5018749;28;20030;-81
2022/12/09 07:21:32;;;;;;;14.65;8.32;;;0.20;99.90;;;;;;5009433;28;20031;-81
2022/12/09 07:23:59;;;;;;;17.33;7.57;;;0.20;99.90;;;;;;5008407;28;20014;-82
2022/12/09 07:26:25;;;;;;;12.27;6.88;;;0.30;99.90;;;;;;5012828;28;20557;-82
2022/12/09 07:28:51;;;;;;;10.95;6.65;;;0.30;99.90;;;;;;5000946;28;20468;-80
2022/12/09 07:31:25;;;;;;;11.52;7.72;;;0.30;99.90;;;;;;4992593;28;20033;-81
2022/12/09 07:33:52;;;;;;;15.52;8.98;;;0.30;99.90;;;;;;5000422;28;20034;-82
2022/12/09 07:36:19;;;;;;;19.20;9.05;;;0.30;99.90;;;;;;5000842;28;20026;-82
2022/12/09 07:38:45;;;;;;;17.08;8.68;;;0.20;99.90;;;;;;5001851;28;20026;-81
2022/12/09 07:41:17;;;;;;;14.82;8.30;;;0.10;99.90;;;;;;5002568;28;20128;-80
2022/12/09 07:43:44;;;;;;;12.63;8.23;;;0.10;99.90;;;;;;5003554;28;20033;-80
2022/12/09 07:46:11;;;;;;;12.27;7.45;;;0.00;99.90;;;;;;4998450;28;20125;-82
2022/12/09 07:48:36;;;;;;;21.17;9.90;;;0.00;99.90;;;;;;4998952;28;20056;-82
2022/12/09 07:51:03;;;;;;;17.73;10.65;;;0.00;99.90;;;;;;4998946;28;20415;-82
2022/12/09 07:53:30;;;;;;;17.35;10.13;;;0.00;99.90;;;;;;5004983;28;20030;-83
2022/12/09 07:56:01;;;;;;;20.95;10.90;;;0.00;99.90;;;;;;5011515;28;20087;-80
2022/12/09 07:58:27;;;;;;;21.90;11.20;;;0.00;99.90;;;;;;5021570;28;20030;-84
2022/12/09 08:00:53;;;;;;;21.63;10.90;;;0.00;99.90;;;;;;5007265;28;20546;-82
2022/12/09 08:03:18;;;;;;;21.67;11.80;;;0.00;99.90;;;;;;5001833;28;20031;-82
2022/12/09 08:05:49;;;;;;;20.85;11.50;;;0.10;99.90;;;;;;4993634;28;20033;-82
2022/12/09 08:08:15;;;;;;;22.23;11.88;;;0.10;99.90;;;;;;5001094;28;20027;-80
2022/12/09 08:10:40;;;;;;;19.88;10.55;;;0.10;99.90;;;;;;5002058;28;20038;-80
2022/12/09 08:13:06;;;;;;;19.75;11.15;;;0.20;99.90;;;;;;5001021;28;20101;-79
2022/12/09 08:15:32;;;;;;;18.83;11.18;;;0.20;99.90;;;;;;5000829;28;20011;-82
2022/12/09 08:17:58;;;;;;;19.48;10.30;;;0.20;99.90;;;;;;5001211;28;20022;-81
2022/12/09 08:20:24;;;;;;;15.88;10.18;;;0.20;99.90;;;;;;4998719;28;20450;-81
2022/12/09 08:22:56;;;;;;;18.27;10.50;;;0.40;99.90;;;;;;5000810;28;20168;-82
2022/12/09 08:25:22;;;;;;;20.92;10.98;;;0.50;99.90;;;;;;5010313;28;20144;-81
2022/12/09 08:27:48;;;;;;;20.88;12.30;;;0.60;99.90;;;;;;5019803;28;20107;-81
2022/12/09 08:30:17;;;;;;;21.95;11.98;;;0.60;99.90;;;;;;5017950;28;20029;-82
2022/12/09 08:32:43;;;;;;;27.20;14.10;;;0.70;99.90;;;;;;5019179;28;20029;-81
2022/12/09 08:35:13;;;;;;;23.60;12.48;;;0.80;99.90;;;;;;5012062;28;20027;-82
2022/12/09 08:37:43;;;;;;;22.45;12.65;;;0.80;99.90;;;;;;5001072;28;20026;-82
2022/12/09 08:40:10;;;;;;;22.75;13.90;;;0.80;99.90;;;;;;5001323;28;20494;-82
2022/12/09 08:42:41;;;;;;;28.60;14.60;;;0.80;99.90;;;;;;4997201;28;20069;-82
2022/12/09 08:45:07;;;;;;;29.58;14.52;;;0.80;99.90;;;;;;4992664;28;20075;-83
2022/12/09 08:47:33;;;;;;;32.65;15.63;;;0.70;99.90;;;;;;5002933;28;20106;-82
2022/12/09 08:49:58;;;;;;;30.13;16.48;;;0.70;99.90;;;;;;5022331;28;20475;-83
2022/12/09 08:52:27;;;;;;;29.95;17.05;;;0.70;99.90;;;;;;5021997;28;20022;-81
2022/12/09 08:54:52;;;;;;;32.03;17.73;;;0.70;99.90;;;;;;5006520;28;20014;-83
2022/12/09 08:57:27;;;;;;;27.48;16.20;;;0.70;99.90;;;;;;5019693;28;20149;-81
2022/12/09 08:59:52;;;;;;;34.33;17.73;;;0.70;99.90;;;;;;5003629;28;20106;-83
2022/12/09 09:02:18;;;;;;;29.85;16.33;;;0.80;99.90;;;;;;5003353;28;20022;-82
2022/12/09 09:04:44;;;;;;;32.17;16.58;;;0.80;99.90;;;;;;5003431;28;20424;-82
2022/12/09 09:07:10;;;;;;;25.27;14.43;;;0.90;99.90;;;;;;5001648;28;20015;-81
2022/12/09 09:09:36;;;;;;;26.90;14.68;;;1.00;99.90;;;;;;5001324;28;20038;-81
2022/12/09 09:12:02;;;;;;;25.77;14.95;;;1.10;99.90;;;;;;5002907;28;20027;-80
2022/12/09 09:14:31;;;;;;;31.85;17.63;;;1.20;99.90;;;;;;5001447;28;20027;-82
2022/12/09 09:16:57;;;;;;;32.67;16.20;;;1.20;99.90;;;;;;5000503;28;20023;-80
2022/12/09 09:19:30;;;;;;;31.58;17.63;;;1.20;99.90;;;;;;5004035;28;20030;-81
2022/12/09 09:21:55;;;;;;;31.27;17.20;;;1.20;99.90;;;;;;5002861;28;20033;-79
2022/12/09 09:24:23;;;;;;;28.13;17.10;;;1.10;99.90;;;;;;4990129;28;20062;-78
2022/12/09 09:26:51;;;;;;;30.98;17.92;;;1.10;99.90;;;;;;4982743;28;20058;-81
2022/12/09 09:29:19;;;;;;;29.73;17.08;;;1.00;99.90;;;;;;4990159;28;20133;-78
2022/12/09 09:31:48;;;;;;;30.38;17.42;;;0.90;99.90;;;;;;5002534;28;20025;-80
2022/12/09 09:34:17;;;;;;;36.10;18.40;;;0.80;99.90;;;;;;4997667;28;20050;-78
2022/12/09 09:36:43;;;;;;;33.17;17.65;;;0.90;99.90;;;;;;4996218;28;20018;-80
2022/12/09 09:39:09;;;;;;;29.40;15.85;;;1.00;99.90;;;;;;4996293;28;20132;-79
2022/12/09 09:41:49;;;;;;;29.80;16.85;;;1.10;99.90;;;;;;4998399;28;20022;-79
2022/12/09 09:44:42;;;;;;;33.30;18.20;;;1.10;99.90;;;;;;4995972;28;20027;-80
2022/12/09 09:47:14;;;;;;;32.35;17.48;;;1.10;99.90;;;;;;4996697;28;20019;-80
2022/12/09 09:49:51;;;;;;;32.27;17.73;;;1.00;99.90;;;;;;4984320;28;20023;-79
2022/12/09 09:52:20;;;;;;;30.10;17.38;;;0.90;99.90;;;;;;4987872;28;20109;-80
2022/12/09 09:54:46;;;;;;;30.75;16.77;;;1.00;99.90;;;;;;4987964;28;20138;-79
2022/12/09 09:57:15;;;;;;;26.92;15.70;;;1.10;99.90;;;;;;4997924;28;20018;-78
2022/12/09 09:59:57;;;;;;;27.98;15.13;;;1.30;99.90;;;;;;4991948;28;20062;-80
2022/12/09 10:02:46;;;;;;;26.95;16.27;;;1.40;99.90;;;;;;4996830;28;20033;-79
2022/12/09 10:05:30;;;;;;;30.85;16.00;;;1.50;99.90;;;;;;4985648;28;20049;-79
2022/12/09 10:08:26;;;;;;;31.92;17.75;;;1.40;99.90;;;;;;4994515;28;20051;-80
2022/12/09 10:10:57;;;;;;;30.00;16.83;;;1.30;99.90;;;;;;4996554;28;20368;-80
2022/12/09 10:13:52;;;;;;;30.17;16.67;;;1.30;99.90;;;;;;5000444;28;20030;-80
2022/12/09 10:16:33;;;;;;;28.92;15.90;;;1.30;99.90;;;;;;4981836;28;20046;-80
2022/12/09 10:19:16;;;;;;;27.35;16.63;;;1.30;99.90;;;;;;4990656;28;20084;-80
2022/12/09 10:21:50;;;;;;;;;;;1.30;99.90;;;;;;5012531;28;20030;-79
2022/12/09 10:24:27;;;;;;;34.63;18.10;;;1.30;99.90;;;;;;4987872;28;20348;-78
2022/12/09 10:27:00;;;;;;;32.85;17.40;;;1.20;99.90;;;;;;5013863;28;20440;-82
2022/12/09 10:29:56;;;;;;;32.40;17.90;;;1.10;99.90;;;;;;4992908;28;20518;-79
2022/12/09 10:32:26;;;;;;;33.38;17.73;;;1.10;99.90;;;;;;4984800;28;20486;-79
2022/12/09 10:34:51;;;;;;;25.98;16.05;;;1.10;99.90;;;;;;4989216;28;20010;-79
2022/12/09 10:37:25;;;;;;;30.13;17.02;;;1.20;99.90;;;;;;4999082;28;20041;-79
2022/12/09 10:40:07;;;;;;;32.85;16.55;;;1.30;99.90;;;;;;4987643;28;20041;-80
2022/12/09 10:45:55;;;;;;;31.85;16.63;;;1.40;99.90;;;;;;4969096;28;20104;-79
2022/12/09 10:48:29;;;;;;;28.55;15.85;;;1.40;99.90;;;;;;5003116;28;20037;-80
2022/12/09 10:51:05;;;;;;;29.17;16.60;;;1.50;99.90;;;;;;5006038;28;20030;-80
2022/12/09 10:53:33;;;;;;;29.58;16.20;;;1.50;99.90;;;;;;5004463;28;20030;-80
2022/12/09 10:56:00;;;;;;;26.40;15.20;;;1.60;99.90;;;;;;5002601;28;20462;-79
2022/12/09 10:58:28;;;;;;;31.73;15.55;;;1.70;99.90;;;;;;4999662;28;20022;-81
2022/12/09 11:01:03;;;;;;;29.40;15.88;;;1.70;99.90;;;;;;4985705;28;20027;-79
2022/12/09 11:03:39;;;;;;;31.02;15.38;;;1.80;99.90;;;;;;4986237;28;20077;-81
2022/12/09 11:06:24;;;;;;;26.27;15.32;;;1.70;99.90;;;;;;5000400;28;20547;-79
2022/12/09 11:09:00;;;;;;;32.35;16.02;;;1.80;99.90;;;;;;4990232;28;20041;-80
2022/12/09 11:11:43;;;;;;;34.83;17.73;;;1.70;99.90;;;;;;4984051;28;20171;-79
2022/12/09 11:14:21;;;;;;;34.72;16.90;;;1.60;99.90;;;;;;4995175;28;20034;-80
2022/12/09 11:16:51;;;;;;;31.13;17.02;;;1.50;99.90;;;;;;4990501;28;20371;-81
2022/12/09 11:19:31;;;;;;;32.03;17.17;;;1.40;99.90;;;;;;5004852;28;20018;-82
2022/12/09 11:22:21;;;;;;;33.78;16.98;;;1.40;99.90;;;;;;5008621;28;20018;-80
2022/12/09 11:24:55;;;;;;;33.17;17.20;;;1.30;99.90;;;;;;5009052;28;20030;-80
2022/12/09 11:27:29;;;;;;;34.30;17.55;;;1.40;99.90;;;;;;5005097;28;20046;-80
2022/12/09 11:30:14;;;;;;;43.30;18.23;;;1.40;99.90;;;;;;5007542;28;20117;-79
2022/12/09 11:32:57;;;;;;;34.90;17.55;;;1.40;99.90;;;;;;5002693;28;20065;-78
2022/12/09 11:35:43;;;;;;;35.03;17.60;;;1.40;99.90;;;;;;5006083;28;20018;-80
2022/12/09 11:38:30;;;;;;;34.67;17.10;;;1.40;99.90;;;;;;5025120;23;20286;-80
2022/12/09 11:41:10;;;;;;;34.70;17.33;;;1.40;99.90;;;;;;5024744;28;20125;-81
2022/12/09 11:43:55;;;;;;;34.90;16.98;;;1.40;99.90;;;;;;5012079;28;20043;-80
2022/12/09 11:46:27;;;;;;;33.17;16.10;;;1.50;99.90;;;;;;5008189;28;20030;-82
2022/12/09 11:48:57;;;;;;;;;;;1.60;99.90;;;;;;5004794;28;20033;-82
2022/12/09 11:51:36;;;;;;;30.75;15.73;;;1.70;99.90;;;;;;5006947;28;19921;-81
2022/12/09 11:54:24;;;;;;;35.35;17.08;;;1.80;99.90;;;;;;5020512;28;20036;-81
2022/12/09 11:56:51;;;;;;;36.33;18.42;;;1.90;99.90;;;;;;5026363;28;20006;-81
2022/12/09 11:59:21;;;;;;;33.78;17.63;;;1.90;99.90;;;;;;5032134;28;20036;-80
2022/12/09 12:01:56;;;;;;;33.47;16.00;;;2.00;99.90;;;;;;5038875;28;20037;-80
2022/12/09 12:04:54;;;;;;;31.38;15.35;;;2.10;99.90;;;;;;5023525;28;20091;-81
2022/12/09 12:07:44;;;;;;;26.77;14.82;;;2.10;99.90;;;;;;5017470;28;20474;-82
2022/12/09 12:10:20;;;;;;;33.95;15.07;;;2.10;99.90;;;;;;5019892;28;20026;-81
2022/12/09 12:13:09;;;;;;;29.48;16.58;;;2.10;99.90;;;;;;5023453;28;20033;-81
2022/12/09 12:16:19;;;;;;;36.38;17.73;;;2.00;99.90;;;;;;5005345;28;20030;-82
2022/12/09 12:18:54;;;;;;;33.42;17.23;;;1.80;99.90;;;;;;5020382;28;20045;-81
2022/12/09 12:21:39;;;;;;;31.45;16.98;;;1.70;99.90;;;;;;5020742;28;20474;-82
2022/12/09 12:24:07;;;;;;;29.45;16.13;;;1.60;99.90;;;;;;5016937;28;20528;-81
2022/12/09 12:26:48;;;;;;;31.77;16.63;;;1.70;99.90;;;;;;5016803;28;20022;-82
2022/12/09 12:29:38;;;;;;;32.38;16.35;;;1.70;99.90;;;;;;5009492;28;20034;-81
2022/12/09 12:32:22;;;;;;;27.52;15.48;;;1.70;99.90;;;;;;5016056;28;20040;-82
2022/12/09 12:35:16;;;;;;;36.42;16.42;;;1.70;99.90;;;;;;5006947;28;20022;-82
2022/12/09 12:37:53;;;;;;;30.83;16.15;;;1.70;99.90;;;;;;4996413;28;20026;-82
2022/12/09 12:40:31;;;;;;;31.40;16.13;;;1.70;99.90;;;;;;5014531;28;20441;-82
2022/12/09 12:46:33;;;;;;;27.58;15.80;;;1.70;99.90;;;;;;4996058;28;20045;-82
2022/12/09 12:49:21;;;;;;;31.35;16.23;;;1.70;99.90;;;;;;5002442;28;20040;-82
2022/12/09 12:52:05;;;;;;;30.90;16.73;;;1.80;99.90;;;;;;5022056;28;20025;-82
2022/12/09 12:54:34;;;;;;;35.20;17.95;;;1.90;99.90;;;;;;5030323;28;20037;-80
2022/12/09 12:57:03;;;;;;;28.23;16.00;;;1.80;99.90;;;;;;5021926;28;20076;-83
2022/12/09 13:00:07;;;;;;;28.67;15.65;;;1.70;99.90;;;;;;5017645;28;20063;-82
2022/12/09 13:03:06;;;;;;;32.72;16.02;;;1.70;99.90;;;;;;5005242;28;20057;-82
2022/12/09 13:05:43;;;;;;;37.75;19.48;;;1.70;99.90;;;;;;4999056;28;20030;-81
2022/12/09 13:08:20;;;;;;;33.83;18.00;;;1.80;99.90;;;;;;5000758;28;20030;-81
2022/12/09 13:10:56;;;;;;;35.63;18.38;;;1.70;99.90;;;;;;5009994;28;20049;-81
2022/12/09 13:13:25;;;;;;;36.35;19.20;;;1.70;99.90;;;;;;5018703;28;20030;-81
2022/12/09 13:15:54;;;;;;;36.22;19.88;;;1.60;99.90;;;;;;5011083;28;20063;-82
2022/12/09 13:18:38;;;;;;;38.72;20.70;;;1.60;99.90;;;;;;4996044;28;20027;-82
2022/12/09 13:21:05;;;;;;;36.30;19.42;;;1.50;99.90;;;;;;4994786;28;20038;-82
2022/12/09 13:23:57;;;;;;;44.33;21.75;;;1.50;99.90;;;;;;5018880;28;20032;-82
2022/12/09 13:26:37;;;;;;;37.25;20.77;;;1.40;99.90;;;;;;5014965;28;20069;-82
2022/12/09 13:29:27;;;;;;;41.13;20.75;;;1.40;99.90;;;;;;5016108;28;20104;-81
2022/12/09 13:32:13;;;;;;;39.90;20.77;;;1.40;99.90;;;;;;5015415;28;20030;-82
2022/12/09 13:34:43;;;;;;;36.97;20.17;;;1.30;99.90;;;;;;5028527;28;20040;-80
2022/12/09 13:37:43;;;;;;;36.60;20.63;;;1.30;99.90;;;;;;5015332;28;20106;-81
2022/12/09 13:40:30;;;;;;;41.33;20.83;;;1.30;99.90;;;;;;5009209;28;20267;-81
2022/12/09 13:43:01;;;;;;;39.80;20.95;;;1.30;99.90;;;;;;5010395;28;20050;-82
2022/12/09 13:45:44;;;;;;;38.40;20.67;;;1.40;99.90;;;;;;5005730;28;20050;-80
2022/12/09 13:48:10;;;;;;;39.20;20.75;;;1.40;99.90;;;;;;5007548;28;20108;-81
2022/12/09 13:50:56;;;;;;;38.20;21.10;;;1.30;99.90;;;;;;5008905;28;20030;-80
2022/12/09 13:53:32;;;;;;;41.38;22.00;;;1.30;99.90;;;;;;5022295;28;20034;-81
2022/12/09 13:56:17;;;;;;;43.10;23.13;;;1.30;99.90;;;;;;5036458;28;20017;-82
2022/12/09 13:59:15;;;;;;;41.90;23.20;;;1.20;99.90;;;;;;5030168;28;20057;-80
2022/12/09 14:01:47;;;;;;;45.35;23.63;;;1.10;99.90;;;;;;5037770;28;20026;-81
2022/12/09 14:04:20;;;;;;;47.30;24.25;;;1.10;99.90;;;;;;5025046;28;20089;-80
2022/12/09 14:06:45;;;;;;;;;;;1.10;99.90;;;;;;5024480;28;20038;-80
2022/12/09 14:09:47;;;;;;;41.42;22.23;;;1.10;99.90;;;;;;5015025;28;19957;-81
2022/12/09 14:12:24;;;;;;;44.40;23.63;;;1.10;99.90;;;;;;5000492;28;20101;-82
2022/12/09 14:15:00;;;;;;;45.03;24.52;;;1.10;99.90;;;;;;5001365;28;20014;-81
2022/12/09 14:17:25;;;;;;;46.58;24.27;;;1.00;99.90;;;;;;4999396;28;20592;-80
2022/12/09 14:20:14;;;;;;;46.58;23.00;;;1.00;99.90;;;;;;5005981;28;20038;-80